createdAt,value
2019-02-18T00:01:59.468Z,96.70
2019-02-18T00:04:48.803Z,96.60
2019-02-18T00:07:31.718Z,96.70
2019-02-18T00:10:21.295Z,96.60
2019-02-18T00:13:03.488Z,96.70
2019-02-18T00:18:54.179Z,96.60
2019-02-18T00:21:24.719Z,96.60
2019-02-18T00:24:14.450Z,96.80
2019-02-18T00:27:03.800Z,96.80
2019-02-18T00:29:45.691Z,96.80
2019-02-18T00:32:35.053Z,96.70
2019-02-18T00:35:24.348Z,96.60
2019-02-18T00:38:06.310Z,96.60
2019-02-18T00:40:55.873Z,96.60
2019-02-18T00:43:37.454Z,96.70
2019-02-18T00:46:27.165Z,96.70
2019-02-18T00:49:09.338Z,96.70
2019-02-18T00:51:58.669Z,96.90
2019-02-18T00:54:40.656Z,96.80
2019-02-18T00:57:30.445Z,96.80
2019-02-18T01:00:13.374Z,96.80
2019-02-18T01:03:03.046Z,96.70
2019-02-18T01:05:45.661Z,97.20
2019-02-18T01:08:34.985Z,96.90
2019-02-18T01:11:16.918Z,96.80
2019-02-18T01:14:25.163Z,96.80
2019-02-18T01:17:07.480Z,96.90
2019-02-18T01:22:33.121Z,96.90
2019-02-18T01:28:10.118Z,96.80
2019-02-18T01:30:59.833Z,96.70
2019-02-18T01:33:41.716Z,96.80
2019-02-18T01:36:31.355Z,96.80
2019-02-18T01:39:13.927Z,97.20
2019-02-18T01:42:03.296Z,97.00
2019-02-18T01:44:48.092Z,97.00
2019-02-18T01:50:38.442Z,96.90
2019-02-18T01:53:21.551Z,96.90
2019-02-18T01:56:11.402Z,96.90
2019-02-18T01:58:53.968Z,96.90
2019-02-18T02:01:43.515Z,96.90
2019-02-18T02:04:25.635Z,96.90
2019-02-18T02:10:02.747Z,96.90
2019-02-18T02:15:55.637Z,96.80
2019-02-18T02:18:38.467Z,97.00
2019-02-18T02:21:27.856Z,97.00
2019-02-18T02:24:10.192Z,97.00
2019-02-18T02:27:00.098Z,97.00
2019-02-18T02:29:42.481Z,96.90
2019-02-18T02:35:27.973Z,97.00
2019-02-18T02:38:10.597Z,97.20
2019-02-18T02:41:00.409Z,97.10
2019-02-18T02:43:41.995Z,97.00
2019-02-18T02:46:31.621Z,97.10
2019-02-18T02:49:13.535Z,97.00
2019-02-18T02:52:16.669Z,97.10
2019-02-18T02:54:47.054Z,97.20
2019-02-18T02:57:36.968Z,97.10
2019-02-18T03:00:19.511Z,97.10
2019-02-18T03:03:09.308Z,97.40
2019-02-18T03:05:51.696Z,97.00
2019-02-18T03:08:41.349Z,97.10
2019-02-18T03:11:23.670Z,96.90
2019-02-18T03:14:13.373Z,97.00
2019-02-18T03:16:54.905Z,97.10
2019-02-18T03:19:44.573Z,97.10
2019-02-18T03:22:27.155Z,97.10
2019-02-18T03:25:35.571Z,97.10
2019-02-18T03:28:33.250Z,97.10
2019-02-18T03:31:19.207Z,97.00
2019-02-18T03:34:33.744Z,97.00
2019-02-18T03:40:20.060Z,97.20
2019-02-18T03:43:09.916Z,97.20
2019-02-18T03:45:51.650Z,97.20
2019-02-18T03:48:41.965Z,97.30
2019-02-18T03:51:24.099Z,97.50
2019-02-18T03:54:06.560Z,97.70
2019-02-18T03:56:55.962Z,97.40
2019-02-18T03:59:38.082Z,97.30
2019-02-18T04:02:27.583Z,97.70
2019-02-18T04:05:09.573Z,97.40
2019-02-18T04:10:34.788Z,97.40
2019-02-18T04:16:20.113Z,97.30
2019-02-18T04:19:02.586Z,97.30
2019-02-18T04:24:55.165Z,97.30
2019-02-18T04:27:44.726Z,97.30
2019-02-18T04:30:26.278Z,97.40
2019-02-18T04:33:16.469Z,97.40
2019-02-18T04:35:59.069Z,97.40
2019-02-18T04:41:49.312Z,97.60
2019-02-18T04:44:38.933Z,97.60
2019-02-18T04:47:09.287Z,97.50
2019-02-18T04:49:58.654Z,97.70
2019-02-18T04:52:40.402Z,97.70
2019-02-18T04:55:22.752Z,97.60
2019-02-18T05:00:48.331Z,97.60
2019-02-18T05:03:18.594Z,97.50
2019-02-18T05:06:08.003Z,97.60
2019-02-18T05:09:05.027Z,97.50
2019-02-18T05:11:44.638Z,97.50
2019-02-18T05:14:34.134Z,97.40
2019-02-18T05:17:16.194Z,97.40
2019-02-18T05:20:25.002Z,97.50
2019-02-18T05:23:07.241Z,97.60
2019-02-18T05:25:37.491Z,97.60
2019-02-18T05:34:09.518Z,97.80
2019-02-18T05:40:00.384Z,97.70
2019-02-18T05:42:30.766Z,97.70
2019-02-18T05:48:15.420Z,97.70
2019-02-18T05:50:57.627Z,97.80
2019-02-18T05:53:39.941Z,97.90
2019-02-18T05:56:21.966Z,97.80
2019-02-18T05:59:11.990Z,97.80
2019-02-18T06:01:54.521Z,97.80
2019-02-18T06:04:44.438Z,97.80
2019-02-18T06:07:26.929Z,97.70
2019-02-18T06:09:57.759Z,97.90
2019-02-18T06:12:47.149Z,97.90
2019-02-18T06:15:31.555Z,97.80
2019-02-18T06:21:24.228Z,97.60
2019-02-18T06:24:13.588Z,97.50
2019-02-18T06:26:55.520Z,97.60
2019-02-18T06:29:44.998Z,97.60
2019-02-18T06:32:27.105Z,97.60
2019-02-18T06:35:16.579Z,97.70
2019-02-18T06:37:59.282Z,97.70
2019-02-18T06:40:48.895Z,97.70
2019-02-18T06:43:31.391Z,97.70
2019-02-18T06:46:39.751Z,97.80
2019-02-18T06:49:23.897Z,97.90
2019-02-18T06:55:01.246Z,97.90
2019-02-18T07:01:16.811Z,98.00
2019-02-18T07:04:25.404Z,98.00
2019-02-18T07:07:30.934Z,97.90
2019-02-18T07:10:05.458Z,97.80
2019-02-18T07:15:49.391Z,97.80
2019-02-18T07:18:33.913Z,97.70
2019-02-18T07:21:23.437Z,97.80
2019-02-18T07:24:05.968Z,97.60
2019-02-18T07:26:55.712Z,97.60
2019-02-18T07:29:40.090Z,97.60
2019-02-18T07:32:29.670Z,97.60
2019-02-18T07:35:12.546Z,97.80
2019-02-18T07:41:03.213Z,97.70
2019-02-18T07:46:53.152Z,97.60
2019-02-18T07:49:42.821Z,97.60
2019-02-18T07:52:29.615Z,97.40
2019-02-18T07:55:11.888Z,97.40
2019-02-18T07:58:01.566Z,97.10
2019-02-18T08:00:50.956Z,96.70
2019-02-18T08:03:32.897Z,96.80
2019-02-18T08:06:22.310Z,96.90
2019-02-18T08:09:05.693Z,96.80
2019-02-18T08:14:45.648Z,96.90
2019-02-18T08:17:35.325Z,96.80
2019-02-18T08:20:24.695Z,95.30
2019-02-18T08:23:14.422Z,96.40
2019-02-18T08:25:44.943Z,95.80
2019-02-18T08:28:34.583Z,95.60
2019-02-18T08:31:18.006Z,94.40
2019-02-18T08:34:09.704Z,95.00
2019-02-18T08:36:51.943Z,94.90
2019-02-18T08:39:43.628Z,93.80
2019-02-18T08:42:25.438Z,93.70
2019-02-18T08:45:34.787Z,94.20
2019-02-18T08:48:16.921Z,94.30
2019-02-18T08:53:55.722Z,93.30
2019-02-18T08:57:04.507Z,92.10
2019-02-18T08:59:46.846Z,92.70
2019-02-18T09:02:36.473Z,91.70
2019-02-18T09:05:18.531Z,92.70
2019-02-18T09:08:07.949Z,92.00
2019-02-18T09:10:50.569Z,91.80
2019-02-18T09:13:40.291Z,90.90
2019-02-18T09:16:24.489Z,91.80
2019-02-18T09:22:23.595Z,91.10
2019-02-18T09:25:32.453Z,91.30
2019-02-18T09:31:10.135Z,90.40
2019-02-18T09:33:59.831Z,89.90
2019-02-18T09:36:42.709Z,87.20
2019-02-18T09:39:32.443Z,88.00
2019-02-18T09:42:15.211Z,88.40
2019-02-18T09:45:05.045Z,89.80
2019-02-18T09:47:48.088Z,88.60
2019-02-18T09:50:37.756Z,87.40
2019-02-18T09:53:20.416Z,85.20
2019-02-18T09:56:10.083Z,87.70
2019-02-18T09:58:52.721Z,87.90
2019-02-18T10:01:43.206Z,87.40
2019-02-18T10:04:25.970Z,86.10
2019-02-18T10:07:35.066Z,85.20
2019-02-18T10:10:16.729Z,85.30
2019-02-18T10:13:07.120Z,86.50
2019-02-18T10:15:49.160Z,87.20
2019-02-18T10:18:38.761Z,85.70
2019-02-18T10:21:20.515Z,85.90
2019-02-18T10:24:09.950Z,84.60
2019-02-18T10:26:52.556Z,82.70
2019-02-18T10:29:34.280Z,83.70
2019-02-18T10:32:23.649Z,84.10
2019-02-18T10:35:06.354Z,84.00
2019-02-18T10:41:06.387Z,78.80
2019-02-18T10:43:47.709Z,81.90
2019-02-18T10:46:37.242Z,83.50
2019-02-18T10:49:21.182Z,78.80
2019-02-18T10:52:10.552Z,79.80
2019-02-18T10:54:52.449Z,79.40
2019-02-18T10:57:41.850Z,80.40
2019-02-18T11:00:24.647Z,79.10
2019-02-18T11:03:14.074Z,78.90
2019-02-18T11:05:44.566Z,80.50
2019-02-18T11:14:34.459Z,81.40
2019-02-18T11:17:23.862Z,80.40
2019-02-18T11:20:05.926Z,78.90
2019-02-18T11:26:01.719Z,79.00
2019-02-18T11:28:51.165Z,76.60
2019-02-18T11:34:31.863Z,78.70
2019-02-18T11:37:21.428Z,77.50
2019-02-18T11:40:03.137Z,75.80
2019-02-18T11:49:00.014Z,77.00
2019-02-18T11:54:57.664Z,76.00
2019-02-18T11:57:39.380Z,77.40
2019-02-18T12:00:28.968Z,76.90
2019-02-18T12:03:12.688Z,77.90
2019-02-18T12:05:54.485Z,75.90
2019-02-18T12:08:25.305Z,76.30
2019-02-18T12:11:14.804Z,77.00
2019-02-18T12:14:04.256Z,77.10
2019-02-18T12:16:46.853Z,76.90
2019-02-18T12:22:37.115Z,77.50
2019-02-18T12:28:16.236Z,76.60
2019-02-18T12:34:01.680Z,74.80
2019-02-18T12:39:34.282Z,76.60
2019-02-18T12:45:07.708Z,74.90
2019-02-18T12:47:57.164Z,76.30
2019-02-18T12:50:38.727Z,74.80
2019-02-18T12:53:28.173Z,75.80
2019-02-18T12:56:10.325Z,75.10
2019-02-18T13:01:46.475Z,75.40
2019-02-18T13:04:35.915Z,73.40
2019-02-18T13:07:17.673Z,75.10
2019-02-18T13:10:07.443Z,74.90
2019-02-18T13:12:49.386Z,75.20
2019-02-18T13:18:27.341Z,72.10
2019-02-18T13:21:16.909Z,74.60
2019-02-18T13:29:54.211Z,72.40
2019-02-18T13:32:43.711Z,73.90
2019-02-18T13:35:27.931Z,73.30
2019-02-18T13:38:17.309Z,72.30
2019-02-18T13:41:00.182Z,70.70
2019-02-18T13:43:49.559Z,72.10
2019-02-18T13:49:34.232Z,71.90
2019-02-18T13:52:16.339Z,72.10
2019-02-18T13:55:06.731Z,72.80
2019-02-18T13:57:48.944Z,72.50
2019-02-18T14:00:38.453Z,72.40
2019-02-18T14:03:20.006Z,73.50
2019-02-18T14:06:09.456Z,74.20
2019-02-18T14:08:40.127Z,73.40
2019-02-18T14:11:29.544Z,72.90
2019-02-18T14:14:11.583Z,74.00
2019-02-18T14:17:01.223Z,72.30
2019-02-18T14:19:43.909Z,73.70
2019-02-18T14:22:33.319Z,72.20
2019-02-18T14:25:03.616Z,74.10
2019-02-18T14:27:47.573Z,71.90
2019-02-18T14:30:37.043Z,74.00
2019-02-18T14:33:26.447Z,73.20
2019-02-18T14:36:09.118Z,74.60
2019-02-18T14:38:39.801Z,74.50
2019-02-18T14:41:29.133Z,73.80
2019-02-18T14:44:18.616Z,73.60
2019-02-18T14:47:00.809Z,73.40
2019-02-18T14:49:50.506Z,73.00
2019-02-18T14:52:34.954Z,79.60
2019-02-18T15:10:24.386Z,75.20
2019-02-18T15:13:13.758Z,75.80
2019-02-18T15:22:05.499Z,73.30
2019-02-18T15:27:44.874Z,76.50
2019-02-18T15:36:45.409Z,75.10
2019-02-18T15:39:33.608Z,74.20
2019-02-18T15:42:19.741Z,74.80
2019-02-18T15:45:09.215Z,75.90
2019-02-18T15:47:51.357Z,76.20
2019-02-18T15:50:40.768Z,79.60
2019-02-18T15:53:22.587Z,76.00
2019-02-18T15:56:04.459Z,76.70
2019-02-18T15:58:53.902Z,77.70
2019-02-18T16:04:27.786Z,78.60
2019-02-18T16:07:17.073Z,79.70
2019-02-18T16:09:58.731Z,79.00
2019-02-18T16:15:50.206Z,79.80
2019-02-18T16:18:32.070Z,80.70
2019-02-18T16:21:21.550Z,80.60
2019-02-18T16:24:19.458Z,81.00
2019-02-18T16:26:53.547Z,81.20
2019-02-18T16:35:48.643Z,82.60
2019-02-18T16:38:34.551Z,82.50
2019-02-18T16:41:17.228Z,82.80
2019-02-18T16:44:06.580Z,83.20
2019-02-18T16:46:48.206Z,84.20
2019-02-18T16:49:37.959Z,85.40
2019-02-18T16:52:20.325Z,84.60
2019-02-18T16:55:06.702Z,85.30
2019-02-18T16:57:49.059Z,85.70
2019-02-18T17:00:39.466Z,86.60
2019-02-18T17:03:21.712Z,88.30
2019-02-18T17:06:11.111Z,87.70
2019-02-18T17:08:54.149Z,87.90
2019-02-18T17:14:51.400Z,88.10
2019-02-18T17:20:49.147Z,88.50
2019-02-18T17:23:31.051Z,88.70
2019-02-18T17:26:20.657Z,90.40
2019-02-18T17:29:06.892Z,90.00
2019-02-18T17:31:49.078Z,90.10
2019-02-18T17:34:38.488Z,90.20
2019-02-18T17:37:20.166Z,90.20
2019-02-18T17:40:10.843Z,90.30
2019-02-18T17:42:53.344Z,90.50
2019-02-18T17:48:44.711Z,90.50
2019-02-18T17:51:15.045Z,90.40
2019-02-18T17:54:05.137Z,90.90
2019-02-18T17:56:57.394Z,90.90
2019-02-18T18:02:30.987Z,90.90
2019-02-18T18:05:01.535Z,90.90
2019-02-18T18:07:50.962Z,91.00
2019-02-18T18:10:40.645Z,91.00
2019-02-18T18:13:30.061Z,91.40
2019-02-18T18:22:17.805Z,91.90
2019-02-18T18:31:00.067Z,91.90
2019-02-18T18:33:49.534Z,92.40
2019-02-18T18:39:38.121Z,92.10
2019-02-18T18:42:27.784Z,92.40
2019-02-18T18:45:10.142Z,92.40
2019-02-18T18:47:59.533Z,92.50
2019-02-18T18:50:43.247Z,92.80
2019-02-18T18:56:23.728Z,92.90
2019-02-18T19:02:01.984Z,93.50
2019-02-18T19:10:53.149Z,93.10
2019-02-18T19:16:25.857Z,93.50
2019-02-18T19:19:15.896Z,93.50
2019-02-18T19:31:08.117Z,93.50
2019-02-18T19:33:51.405Z,93.80
2019-02-18T19:39:19.631Z,93.80
2019-02-18T19:42:09.003Z,93.80
2019-02-18T19:50:58.036Z,93.90
2019-02-18T19:59:43.770Z,94.20
2019-02-18T20:02:32.498Z,94.10
2019-02-18T20:11:31.977Z,94.20
2019-02-18T20:14:14.746Z,94.30
2019-02-18T20:17:04.248Z,94.30
2019-02-18T20:26:01.495Z,94.50
2019-02-18T20:28:50.862Z,94.80
2019-02-18T20:31:37.075Z,94.70
2019-02-18T20:34:26.460Z,94.90
2019-02-18T20:43:12.062Z,95.20
2019-02-18T20:46:01.381Z,95.20
2019-02-18T20:48:43.736Z,95.30
2019-02-18T20:54:38.686Z,95.30
2019-02-18T21:00:20.699Z,95.30
2019-02-18T21:03:10.070Z,95.30
2019-02-18T21:09:02.099Z,95.20
2019-02-18T21:11:47.802Z,95.40
2019-02-18T21:20:34.855Z,95.60
2019-02-18T21:26:27.199Z,95.60
2019-02-18T21:29:09.473Z,95.60
2019-02-18T21:46:03.930Z,95.50
2019-02-18T21:51:52.526Z,95.90
2019-02-18T21:54:35.604Z,95.90
2019-02-18T21:57:24.710Z,96.00
2019-02-18T22:03:12.701Z,96.00
2019-02-18T22:06:03.287Z,96.10
2019-02-18T22:12:03.777Z,96.30
2019-02-18T22:14:47.792Z,96.40
2019-02-18T22:17:31.400Z,97.00
2019-02-18T22:20:15.292Z,97.90
2019-02-18T22:23:02.568Z,96.50
2019-02-18T22:28:52.913Z,96.90
2019-02-18T22:31:42.723Z,96.70
2019-02-18T22:34:32.433Z,96.60
2019-02-18T22:37:17.410Z,96.70
2019-02-18T22:52:35.075Z,96.90
2019-02-18T22:55:20.505Z,96.90
2019-02-18T23:01:08.857Z,97.00
2019-02-18T23:03:50.188Z,97.40
2019-02-18T23:09:45.269Z,97.10
2019-02-18T23:12:26.013Z,98.10
2019-02-18T23:15:07.735Z,97.50
2019-02-18T23:17:49.722Z,97.50
2019-02-18T23:20:34.492Z,97.40
2019-02-18T23:23:21.658Z,97.40
2019-02-18T23:25:49.741Z,97.30
2019-02-18T23:28:47.034Z,97.40
2019-02-18T23:31:28.802Z,97.40
2019-02-18T23:34:09.418Z,97.30
2019-02-18T23:36:50.779Z,97.60
2019-02-18T23:45:28.147Z,97.40
2019-02-18T23:48:10.344Z,97.20
2019-02-18T23:56:38.941Z,97.30
2019-02-18T23:59:21.872Z,97.40
